sensor_id;sensor_type;location;lat;lon;timestamp;temperature;humidity
210;DHT22;90;48.810;9.120;2024-01-07T00:00:23;6.10;96.50
210;DHT22;90;48.810;9.120;2024-01-07T00:02:50;6.20;96.20
210;DHT22;90;48.810;9.120;2024-01-07T00:05:16;6.20;96.00
210;DHT22;90;48.810;9.120;2024-01-07T00:07:43;6.20;95.90
210;DHT22;90;48.810;9.120;2024-01-07T00:10:11;6.20;95.90
210;DHT22;90;48.810;9.120;2024-01-07T00:12:38;6.20;95.80
210;DHT22;90;48.810;9.120;2024-01-07T00:15:05;6.20;95.80
210;DHT22;90;48.810;9.120;2024-01-07T00:17:32;6.20;95.40
210;DHT22;90;48.810;9.120;2024-01-07T00:19:59;6.20;95.40
210;DHT22;90;48.810;9.120;2024-01-07T00:22:26;6.10;95.50
210;DHT22;90;48.810;9.120;2024-01-07T00:24:52;6.10;95.60
210;DHT22;90;48.810;9.120;2024-01-07T00:27:20;6.10;95.90
210;DHT22;90;48.810;9.120;2024-01-07T00:29:47;6.10;95.50
210;DHT22;90;48.810;9.120;2024-01-07T00:32:14;6.10;95.40
210;DHT22;90;48.810;9.120;2024-01-07T00:34:41;6.00;95.60
210;DHT22;90;48.810;9.120;2024-01-07T00:37:08;6.00;95.80
210;DHT22;90;48.810;9.120;2024-01-07T00:39:34;6.00;95.90
210;DHT22;90;48.810;9.120;2024-01-07T00:42:01;6.00;95.90
210;DHT22;90;48.810;9.120;2024-01-07T00:44:29;6.00;95.80
210;DHT22;90;48.810;9.120;2024-01-07T00:46:55;5.90;95.90
210;DHT22;90;48.810;9.120;2024-01-07T00:49:22;5.90;96.10
210;DHT22;90;48.810;9.120;2024-01-07T00:51:49;5.90;96.10
210;DHT22;90;48.810;9.120;2024-01-07T00:54:15;5.90;96.50
210;DHT22;90;48.810;9.120;2024-01-07T00:56:42;5.80;96.70
210;DHT22;90;48.810;9.120;2024-01-07T00:59:09;5.90;96.50
210;DHT22;90;48.810;9.120;2024-01-07T01:01:37;5.80;96.70
210;DHT22;90;48.810;9.120;2024-01-07T01:04:03;5.90;96.80
210;DHT22;90;48.810;9.120;2024-01-07T01:06:30;5.80;96.70
210;DHT22;90;48.810;9.120;2024-01-07T01:08:57;5.90;96.80
210;DHT22;90;48.810;9.120;2024-01-07T01:11:23;5.80;96.80
210;DHT22;90;48.810;9.120;2024-01-07T01:13:50;5.80;96.80
210;DHT22;90;48.810;9.120;2024-01-07T01:16:17;5.80;96.80
210;DHT22;90;48.810;9.120;2024-01-07T01:18:45;5.80;96.80
210;DHT22;90;48.810;9.120;2024-01-07T01:21:11;5.80;96.80
210;DHT22;90;48.810;9.120;2024-01-07T01:23:38;5.80;96.80
210;DHT22;90;48.810;9.120;2024-01-07T01:26:04;5.80;96.80
210;DHT22;90;48.810;9.120;2024-01-07T01:28:31;5.80;96.80
210;DHT22;90;48.810;9.120;2024-01-07T01:30:58;5.80;96.80
210;DHT22;90;48.810;9.120;2024-01-07T01:33:24;5.80;96.80
210;DHT22;90;48.810;9.120;2024-01-07T01:35:52;5.70;96.80
210;DHT22;90;48.810;9.120;2024-01-07T01:38:19;5.70;96.80
210;DHT22;90;48.810;9.120;2024-01-07T01:40:51;5.70;96.80
210;DHT22;90;48.810;9.120;2024-01-07T01:43:22;5.70;96.80
210;DHT22;90;48.810;9.120;2024-01-07T01:45:49;5.60;96.80
210;DHT22;90;48.810;9.120;2024-01-07T01:48:16;5.60;96.80
210;DHT22;90;48.810;9.120;2024-01-07T01:50:42;5.60;96.80
210;DHT22;90;48.810;9.120;2024-01-07T01:53:11;5.60;96.80
210;DHT22;90;48.810;9.120;2024-01-07T01:55:37;5.70;96.80
210;DHT22;90;48.810;9.120;2024-01-07T01:58:04;5.70;96.80
210;DHT22;90;48.810;9.120;2024-01-07T02:00:32;5.70;96.80
210;DHT22;90;48.810;9.120;2024-01-07T02:02:58;5.70;96.80
210;DHT22;90;48.810;9.120;2024-01-07T02:05:26;5.60;96.80
210;DHT22;90;48.810;9.120;2024-01-07T02:07:54;5.60;96.80
210;DHT22;90;48.810;9.120;2024-01-07T02:10:23;5.60;96.80
210;DHT22;90;48.810;9.120;2024-01-07T02:12:49;5.60;96.80
210;DHT22;90;48.810;9.120;2024-01-07T02:15:16;5.60;96.80
210;DHT22;90;48.810;9.120;2024-01-07T02:17:43;5.70;96.80
210;DHT22;90;48.810;9.120;2024-01-07T02:20:10;5.60;96.80
210;DHT22;90;48.810;9.120;2024-01-07T02:22:37;5.70;96.80
210;DHT22;90;48.810;9.120;2024-01-07T02:25:05;5.70;96.80
210;DHT22;90;48.810;9.120;2024-01-07T02:27:33;5.60;96.80
210;DHT22;90;48.810;9.120;2024-01-07T02:30:00;5.70;96.80
210;DHT22;90;48.810;9.120;2024-01-07T02:32:27;5.70;96.80
210;DHT22;90;48.810;9.120;2024-01-07T02:34:54;5.70;96.80
210;DHT22;90;48.810;9.120;2024-01-07T02:37:20;5.70;96.80
210;DHT22;90;48.810;9.120;2024-01-07T02:39:47;5.80;96.80
210;DHT22;90;48.810;9.120;2024-01-07T02:42:15;5.80;96.80
210;DHT22;90;48.810;9.120;2024-01-07T02:44:41;5.80;96.80
210;DHT22;90;48.810;9.120;2024-01-07T02:47:08;5.80;96.80
210;DHT22;90;48.810;9.120;2024-01-07T02:49:35;5.70;96.80
210;DHT22;90;48.810;9.120;2024-01-07T02:52:02;5.70;96.80
210;DHT22;90;48.810;9.120;2024-01-07T02:54:28;5.70;96.80
210;DHT22;90;48.810;9.120;2024-01-07T02:56:55;5.80;96.80
210;DHT22;90;48.810;9.120;2024-01-07T02:59:23;5.70;96.80
210;DHT22;90;48.810;9.120;2024-01-07T03:01:50;5.70;96.80
210;DHT22;90;48.810;9.120;2024-01-07T03:04:16;5.80;96.80
210;DHT22;90;48.810;9.120;2024-01-07T03:06:43;5.80;96.80
210;DHT22;90;48.810;9.120;2024-01-07T03:09:10;5.80;96.80
210;DHT22;90;48.810;9.120;2024-01-07T03:11:39;5.80;96.70
210;DHT22;90;48.810;9.120;2024-01-07T03:14:06;5.80;96.50
210;DHT22;90;48.810;9.120;2024-01-07T03:16:34;5.80;96.50
210;DHT22;90;48.810;9.120;2024-01-07T03:19:01;5.80;96.40
210;DHT22;90;48.810;9.120;2024-01-07T03:21:30;5.80;96.40
210;DHT22;90;48.810;9.120;2024-01-07T03:23:56;5.70;96.30
210;DHT22;90;48.810;9.120;2024-01-07T03:26:23;5.70;96.50
210;DHT22;90;48.810;9.120;2024-01-07T03:28:50;5.70;96.70
210;DHT22;90;48.810;9.120;2024-01-07T03:31:18;5.70;96.60
210;DHT22;90;48.810;9.120;2024-01-07T03:33:47;5.70;96.50
210;DHT22;90;48.810;9.120;2024-01-07T03:36:14;5.80;96.40
210;DHT22;90;48.810;9.120;2024-01-07T03:38:41;5.70;95.80
210;DHT22;90;48.810;9.120;2024-01-07T03:41:08;5.70;96.00
210;DHT22;90;48.810;9.120;2024-01-07T03:43:35;5.70;96.10
210;DHT22;90;48.810;9.120;2024-01-07T03:46:02;5.70;96.00
210;DHT22;90;48.810;9.120;2024-01-07T03:48:28;5.70;96.10
210;DHT22;90;48.810;9.120;2024-01-07T03:50:56;5.80;95.80
210;DHT22;90;48.810;9.120;2024-01-07T03:53:23;5.80;95.80
210;DHT22;90;48.810;9.120;2024-01-07T03:55:53;5.80;95.60
210;DHT22;90;48.810;9.120;2024-01-07T03:58:22;5.70;95.60
210;DHT22;90;48.810;9.120;2024-01-07T04:00:49;5.70;95.80
210;DHT22;90;48.810;9.120;2024-01-07T04:03:16;5.70;96.00
210;DHT22;90;48.810;9.120;2024-01-07T04:05:43;5.70;95.90
210;DHT22;90;48.810;9.120;2024-01-07T04:08:15;5.70;95.70
210;DHT22;90;48.810;9.120;2024-01-07T04:10:43;5.70;95.60
210;DHT22;90;48.810;9.120;2024-01-07T04:13:10;5.80;95.50
210;DHT22;90;48.810;9.120;2024-01-07T04:15:37;5.80;95.30
210;DHT22;90;48.810;9.120;2024-01-07T04:18:04;5.80;95.10
210;DHT22;90;48.810;9.120;2024-01-07T04:20:31;5.80;95.10
210;DHT22;90;48.810;9.120;2024-01-07T04:22:58;5.80;94.50
210;DHT22;90;48.810;9.120;2024-01-07T04:25:26;5.70;94.60
210;DHT22;90;48.810;9.120;2024-01-07T04:27:53;5.80;94.80
210;DHT22;90;48.810;9.120;2024-01-07T04:30:19;5.80;95.00
210;DHT22;90;48.810;9.120;2024-01-07T04:32:46;5.80;94.70
210;DHT22;90;48.810;9.120;2024-01-07T04:35:13;5.80;94.80
210;DHT22;90;48.810;9.120;2024-01-07T04:37:42;5.80;94.60
210;DHT22;90;48.810;9.120;2024-01-07T04:40:10;5.70;95.00
210;DHT22;90;48.810;9.120;2024-01-07T04:42:42;5.80;94.80
210;DHT22;90;48.810;9.120;2024-01-07T04:45:09;5.70;94.80
210;DHT22;90;48.810;9.120;2024-01-07T04:48:06;5.70;94.80
210;DHT22;90;48.810;9.120;2024-01-07T04:53:47;5.70;94.60
210;DHT22;90;48.810;9.120;2024-01-07T04:56:14;5.70;94.80
210;DHT22;90;48.810;9.120;2024-01-07T04:58:42;5.70;94.80
210;DHT22;90;48.810;9.120;2024-01-07T05:01:09;5.70;95.00
210;DHT22;90;48.810;9.120;2024-01-07T05:03:36;5.70;95.00
210;DHT22;90;48.810;9.120;2024-01-07T05:06:03;5.70;95.00
210;DHT22;90;48.810;9.120;2024-01-07T05:08:30;5.70;95.00
210;DHT22;90;48.810;9.120;2024-01-07T05:10:57;5.60;95.00
210;DHT22;90;48.810;9.120;2024-01-07T05:13:23;5.60;95.20
210;DHT22;90;48.810;9.120;2024-01-07T05:15:51;5.60;95.40
210;DHT22;90;48.810;9.120;2024-01-07T05:18:20;5.60;95.60
210;DHT22;90;48.810;9.120;2024-01-07T05:20:47;5.60;95.60
210;DHT22;90;48.810;9.120;2024-01-07T05:23:13;5.60;95.40
210;DHT22;90;48.810;9.120;2024-01-07T05:25:42;5.60;95.30
210;DHT22;90;48.810;9.120;2024-01-07T05:28:10;5.60;95.40
210;DHT22;90;48.810;9.120;2024-01-07T05:30:37;5.50;95.80
210;DHT22;90;48.810;9.120;2024-01-07T05:33:06;5.60;96.00
210;DHT22;90;48.810;9.120;2024-01-07T05:35:32;5.60;95.70
210;DHT22;90;48.810;9.120;2024-01-07T05:37:59;5.60;95.70
210;DHT22;90;48.810;9.120;2024-01-07T05:40:26;5.60;95.50
210;DHT22;90;48.810;9.120;2024-01-07T05:42:52;5.60;95.40
210;DHT22;90;48.810;9.120;2024-01-07T05:45:19;5.60;95.50
210;DHT22;90;48.810;9.120;2024-01-07T05:47:46;5.60;95.70
210;DHT22;90;48.810;9.120;2024-01-07T05:50:15;5.60;95.80
210;DHT22;90;48.810;9.120;2024-01-07T05:52:44;5.50;95.90
210;DHT22;90;48.810;9.120;2024-01-07T05:55:11;5.60;95.70
210;DHT22;90;48.810;9.120;2024-01-07T05:57:38;5.50;95.40
210;DHT22;90;48.810;9.120;2024-01-07T06:00:05;5.50;95.30
210;DHT22;90;48.810;9.120;2024-01-07T06:02:34;5.50;95.40
210;DHT22;90;48.810;9.120;2024-01-07T06:05:02;5.50;95.70
210;DHT22;90;48.810;9.120;2024-01-07T06:07:30;5.60;95.60
210;DHT22;90;48.810;9.120;2024-01-07T06:09:57;5.50;95.20
210;DHT22;90;48.810;9.120;2024-01-07T06:12:23;5.50;95.50
210;DHT22;90;48.810;9.120;2024-01-07T06:14:50;5.50;95.40
210;DHT22;90;48.810;9.120;2024-01-07T06:17:17;5.50;95.60
210;DHT22;90;48.810;9.120;2024-01-07T06:19:44;5.50;95.20
210;DHT22;90;48.810;9.120;2024-01-07T06:22:10;5.40;95.10
210;DHT22;90;48.810;9.120;2024-01-07T06:24:39;5.40;95.50
210;DHT22;90;48.810;9.120;2024-01-07T06:27:05;5.30;95.40
210;DHT22;90;48.810;9.120;2024-01-07T06:29:32;5.30;96.00
210;DHT22;90;48.810;9.120;2024-01-07T06:32:01;5.30;95.70
210;DHT22;90;48.810;9.120;2024-01-07T06:34:29;5.40;95.30
210;DHT22;90;48.810;9.120;2024-01-07T06:36:55;5.40;94.60
210;DHT22;90;48.810;9.120;2024-01-07T06:39:22;5.40;94.40
210;DHT22;90;48.810;9.120;2024-01-07T06:41:53;5.40;94.30
210;DHT22;90;48.810;9.120;2024-01-07T06:44:20;5.30;94.00
210;DHT22;90;48.810;9.120;2024-01-07T06:46:47;5.30;94.10
210;DHT22;90;48.810;9.120;2024-01-07T06:49:13;5.30;94.20
210;DHT22;90;48.810;9.120;2024-01-07T06:51:40;5.30;94.50
210;DHT22;90;48.810;9.120;2024-01-07T06:54:07;5.30;94.10
210;DHT22;90;48.810;9.120;2024-01-07T06:56:34;5.30;93.90
210;DHT22;90;48.810;9.120;2024-01-07T06:59:02;5.40;93.30
210;DHT22;90;48.810;9.120;2024-01-07T07:01:28;5.30;92.20
210;DHT22;90;48.810;9.120;2024-01-07T07:03:55;5.30;92.50
210;DHT22;90;48.810;9.120;2024-01-07T07:06:22;5.20;92.50
210;DHT22;90;48.810;9.120;2024-01-07T07:08:49;5.30;92.20
210;DHT22;90;48.810;9.120;2024-01-07T07:11:16;5.20;91.70
210;DHT22;90;48.810;9.120;2024-01-07T07:13:43;5.20;92.20
210;DHT22;90;48.810;9.120;2024-01-07T07:16:11;5.30;91.70
210;DHT22;90;48.810;9.120;2024-01-07T07:18:38;5.30;91.50
210;DHT22;90;48.810;9.120;2024-01-07T07:21:04;5.20;91.00
210;DHT22;90;48.810;9.120;2024-01-07T07:23:32;5.20;91.00
210;DHT22;90;48.810;9.120;2024-01-07T07:25:58;5.10;89.30
210;DHT22;90;48.810;9.120;2024-01-07T07:28:25;5.10;89.50
210;DHT22;90;48.810;9.120;2024-01-07T07:30:52;5.00;88.60
210;DHT22;90;48.810;9.120;2024-01-07T07:33:20;5.00;87.40
210;DHT22;90;48.810;9.120;2024-01-07T07:35:47;5.00;87.60
210;DHT22;90;48.810;9.120;2024-01-07T07:38:13;4.90;87.70
210;DHT22;90;48.810;9.120;2024-01-07T07:40:40;4.80;87.70
210;DHT22;90;48.810;9.120;2024-01-07T07:43:07;4.80;88.00
210;DHT22;90;48.810;9.120;2024-01-07T07:45:34;4.90;87.50
210;DHT22;90;48.810;9.120;2024-01-07T07:48:01;4.90;87.30
210;DHT22;90;48.810;9.120;2024-01-07T07:50:29;4.80;87.00
210;DHT22;90;48.810;9.120;2024-01-07T07:52:56;4.80;86.80
210;DHT22;90;48.810;9.120;2024-01-07T07:55:23;4.80;87.40
210;DHT22;90;48.810;9.120;2024-01-07T07:57:49;4.80;86.80
210;DHT22;90;48.810;9.120;2024-01-07T08:00:18;4.90;86.80
210;DHT22;90;48.810;9.120;2024-01-07T08:02:44;4.80;87.00
210;DHT22;90;48.810;9.120;2024-01-07T08:05:11;4.90;87.00
210;DHT22;90;48.810;9.120;2024-01-07T08:07:40;4.80;87.00
210;DHT22;90;48.810;9.120;2024-01-07T08:10:07;4.80;87.30
210;DHT22;90;48.810;9.120;2024-01-07T08:12:34;4.80;87.10
210;DHT22;90;48.810;9.120;2024-01-07T08:15:01;4.80;86.50
210;DHT22;90;48.810;9.120;2024-01-07T08:17:28;4.80;86.00
210;DHT22;90;48.810;9.120;2024-01-07T08:19:55;4.80;86.40
210;DHT22;90;48.810;9.120;2024-01-07T08:22:21;4.70;86.50
210;DHT22;90;48.810;9.120;2024-01-07T08:24:49;4.70;86.40
210;DHT22;90;48.810;9.120;2024-01-07T08:27:16;4.70;86.30
210;DHT22;90;48.810;9.120;2024-01-07T08:29:43;4.70;86.70
210;DHT22;90;48.810;9.120;2024-01-07T08:32:10;4.70;86.60
210;DHT22;90;48.810;9.120;2024-01-07T08:34:37;5.00;93.10
210;DHT22;90;48.810;9.120;2024-01-07T08:37:04;5.10;86.90
210;DHT22;90;48.810;9.120;2024-01-07T08:39:31;5.00;85.60
210;DHT22;90;48.810;9.120;2024-01-07T08:41:59;5.00;85.50
210;DHT22;90;48.810;9.120;2024-01-07T08:44:26;5.00;85.50
210;DHT22;90;48.810;9.120;2024-01-07T08:46:53;5.00;85.50
210;DHT22;90;48.810;9.120;2024-01-07T08:49:20;4.90;85.60
210;DHT22;90;48.810;9.120;2024-01-07T08:51:46;4.80;84.80
210;DHT22;90;48.810;9.120;2024-01-07T08:54:13;4.80;85.00
210;DHT22;90;48.810;9.120;2024-01-07T08:56:39;4.70;84.20
210;DHT22;90;48.810;9.120;2024-01-07T08:59:08;4.70;84.40
210;DHT22;90;48.810;9.120;2024-01-07T09:01:35;4.70;84.20
210;DHT22;90;48.810;9.120;2024-01-07T09:04:02;4.70;83.40
210;DHT22;90;48.810;9.120;2024-01-07T09:06:28;4.70;83.10
210;DHT22;90;48.810;9.120;2024-01-07T09:08:55;4.70;82.80
210;DHT22;90;48.810;9.120;2024-01-07T09:11:22;4.70;82.70
210;DHT22;90;48.810;9.120;2024-01-07T09:13:49;4.70;83.30
210;DHT22;90;48.810;9.120;2024-01-07T09:16:18;4.80;83.20
210;DHT22;90;48.810;9.120;2024-01-07T09:18:44;4.80;83.20
210;DHT22;90;48.810;9.120;2024-01-07T09:21:12;4.70;83.10
210;DHT22;90;48.810;9.120;2024-01-07T09:23:39;4.80;83.50
210;DHT22;90;48.810;9.120;2024-01-07T09:26:07;4.80;83.50
210;DHT22;90;48.810;9.120;2024-01-07T09:28:33;4.70;83.90
210;DHT22;90;48.810;9.120;2024-01-07T09:31:00;4.70;84.40
210;DHT22;90;48.810;9.120;2024-01-07T09:33:28;4.60;84.00
210;DHT22;90;48.810;9.120;2024-01-07T09:35:55;4.60;84.00
210;DHT22;90;48.810;9.120;2024-01-07T09:38:21;4.60;83.90
210;DHT22;90;48.810;9.120;2024-01-07T09:40:50;4.50;83.90
210;DHT22;90;48.810;9.120;2024-01-07T09:43:17;4.60;83.80
210;DHT22;90;48.810;9.120;2024-01-07T09:45:46;4.50;83.10
210;DHT22;90;48.810;9.120;2024-01-07T09:48:13;4.60;83.20
210;DHT22;90;48.810;9.120;2024-01-07T09:50:41;4.60;83.90
210;DHT22;90;48.810;9.120;2024-01-07T09:53:13;4.60;83.30
210;DHT22;90;48.810;9.120;2024-01-07T09:55:51;4.70;83.00
210;DHT22;90;48.810;9.120;2024-01-07T09:58:19;4.70;82.40
210;DHT22;90;48.810;9.120;2024-01-07T10:00:45;4.70;82.40
210;DHT22;90;48.810;9.120;2024-01-07T10:03:12;4.60;83.00
210;DHT22;90;48.810;9.120;2024-01-07T10:05:40;4.60;83.20
210;DHT22;90;48.810;9.120;2024-01-07T10:08:07;4.60;83.30
210;DHT22;90;48.810;9.120;2024-01-07T10:10:35;4.60;83.10
210;DHT22;90;48.810;9.120;2024-01-07T10:13:02;4.70;82.70
210;DHT22;90;48.810;9.120;2024-01-07T10:15:29;4.70;82.60
210;DHT22;90;48.810;9.120;2024-01-07T10:18:02;4.60;82.80
210;DHT22;90;48.810;9.120;2024-01-07T10:20:31;4.60;82.80
210;DHT22;90;48.810;9.120;2024-01-07T10:22:59;4.50;82.80
210;DHT22;90;48.810;9.120;2024-01-07T10:25:26;4.50;82.90
210;DHT22;90;48.810;9.120;2024-01-07T10:27:53;4.40;83.20
210;DHT22;90;48.810;9.120;2024-01-07T10:30:25;4.50;83.20
210;DHT22;90;48.810;9.120;2024-01-07T10:32:55;4.50;82.00
210;DHT22;90;48.810;9.120;2024-01-07T10:35:33;4.50;81.90
210;DHT22;90;48.810;9.120;2024-01-07T10:38:02;4.50;81.20
210;DHT22;90;48.810;9.120;2024-01-07T10:40:30;4.50;80.70
210;DHT22;90;48.810;9.120;2024-01-07T10:42:58;4.50;79.80
210;DHT22;90;48.810;9.120;2024-01-07T10:45:25;4.50;79.80
210;DHT22;90;48.810;9.120;2024-01-07T10:47:55;4.40;79.70
210;DHT22;90;48.810;9.120;2024-01-07T10:50:22;4.60;79.60
210;DHT22;90;48.810;9.120;2024-01-07T10:52:49;4.50;80.10
210;DHT22;90;48.810;9.120;2024-01-07T10:55:19;4.50;80.10
210;DHT22;90;48.810;9.120;2024-01-07T10:57:49;4.60;79.00
210;DHT22;90;48.810;9.120;2024-01-07T11:00:16;4.50;79.10
210;DHT22;90;48.810;9.120;2024-01-07T11:03:01;4.60;78.80
210;DHT22;90;48.810;9.120;2024-01-07T11:05:39;4.50;78.30
210;DHT22;90;48.810;9.120;2024-01-07T11:08:13;4.40;78.60
210;DHT22;90;48.810;9.120;2024-01-07T11:10:48;4.50;78.70
210;DHT22;90;48.810;9.120;2024-01-07T11:13:32;4.50;79.20
210;DHT22;90;48.810;9.120;2024-01-07T11:15:58;4.60;79.00
210;DHT22;90;48.810;9.120;2024-01-07T11:18:26;4.60;78.90
210;DHT22;90;48.810;9.120;2024-01-07T11:20:58;4.60;79.10
210;DHT22;90;48.810;9.120;2024-01-07T11:23:26;4.60;78.70
210;DHT22;90;48.810;9.120;2024-01-07T11:25:56;4.60;78.40
210;DHT22;90;48.810;9.120;2024-01-07T11:28:44;4.60;78.60
210;DHT22;90;48.810;9.120;2024-01-07T11:31:11;4.60;78.20
210;DHT22;90;48.810;9.120;2024-01-07T11:33:38;4.50;78.70
210;DHT22;90;48.810;9.120;2024-01-07T11:36:06;4.40;79.30
210;DHT22;90;48.810;9.120;2024-01-07T11:38:34;4.50;79.50
210;DHT22;90;48.810;9.120;2024-01-07T11:41:03;4.40;79.10
210;DHT22;90;48.810;9.120;2024-01-07T11:43:31;4.30;78.70
210;DHT22;90;48.810;9.120;2024-01-07T11:45:59;4.30;78.90
210;DHT22;90;48.810;9.120;2024-01-07T11:48:25;4.20;79.00
210;DHT22;90;48.810;9.120;2024-01-07T11:50:52;4.20;79.00
210;DHT22;90;48.810;9.120;2024-01-07T11:53:19;4.20;79.20
210;DHT22;90;48.810;9.120;2024-01-07T11:55:46;4.20;79.20
210;DHT22;90;48.810;9.120;2024-01-07T11:58:15;4.20;79.20
210;DHT22;90;48.810;9.120;2024-01-07T12:00:42;4.20;79.10
210;DHT22;90;48.810;9.120;2024-01-07T12:03:09;4.30;79.20
210;DHT22;90;48.810;9.120;2024-01-07T12:05:37;4.30;79.00
210;DHT22;90;48.810;9.120;2024-01-07T12:08:04;4.30;79.00
210;DHT22;90;48.810;9.120;2024-01-07T12:10:31;4.20;79.10
210;DHT22;90;48.810;9.120;2024-01-07T12:12:59;4.20;78.80
210;DHT22;90;48.810;9.120;2024-01-07T12:15:27;4.20;79.40
210;DHT22;90;48.810;9.120;2024-01-07T12:17:58;4.20;79.50
210;DHT22;90;48.810;9.120;2024-01-07T12:20:27;4.10;80.00
210;DHT22;90;48.810;9.120;2024-01-07T12:22:56;4.10;80.60
210;DHT22;90;48.810;9.120;2024-01-07T12:25:22;4.10;80.30
210;DHT22;90;48.810;9.120;2024-01-07T12:27:50;4.10;80.40
210;DHT22;90;48.810;9.120;2024-01-07T12:30:19;4.00;80.80
210;DHT22;90;48.810;9.120;2024-01-07T12:32:51;4.00;80.80
210;DHT22;90;48.810;9.120;2024-01-07T12:35:18;3.90;81.00
210;DHT22;90;48.810;9.120;2024-01-07T12:37:45;3.90;81.20
210;DHT22;90;48.810;9.120;2024-01-07T12:40:12;3.80;81.50
210;DHT22;90;48.810;9.120;2024-01-07T12:42:39;3.80;81.90
210;DHT22;90;48.810;9.120;2024-01-07T12:45:10;3.80;82.00
210;DHT22;90;48.810;9.120;2024-01-07T12:47:38;3.90;81.70
210;DHT22;90;48.810;9.120;2024-01-07T12:50:06;3.80;81.20
210;DHT22;90;48.810;9.120;2024-01-07T12:52:35;3.70;81.90
210;DHT22;90;48.810;9.120;2024-01-07T12:55:02;3.70;82.10
210;DHT22;90;48.810;9.120;2024-01-07T12:57:29;3.70;81.90
210;DHT22;90;48.810;9.120;2024-01-07T12:59:55;3.70;81.90
210;DHT22;90;48.810;9.120;2024-01-07T13:02:22;3.70;81.80
210;DHT22;90;48.810;9.120;2024-01-07T13:04:49;3.70;81.80
210;DHT22;90;48.810;9.120;2024-01-07T13:07:17;3.60;82.10
210;DHT22;90;48.810;9.120;2024-01-07T13:09:44;3.50;82.00
210;DHT22;90;48.810;9.120;2024-01-07T13:12:11;3.60;82.30
210;DHT22;90;48.810;9.120;2024-01-07T13:14:38;3.50;82.30
210;DHT22;90;48.810;9.120;2024-01-07T13:17:05;3.50;82.00
210;DHT22;90;48.810;9.120;2024-01-07T13:19:31;3.40;82.20
210;DHT22;90;48.810;9.120;2024-01-07T13:21:59;3.40;82.00
210;DHT22;90;48.810;9.120;2024-01-07T13:24:28;3.30;81.80
210;DHT22;90;48.810;9.120;2024-01-07T13:26:55;3.30;81.90
210;DHT22;90;48.810;9.120;2024-01-07T13:29:22;3.30;81.80
210;DHT22;90;48.810;9.120;2024-01-07T13:31:49;3.30;81.70
210;DHT22;90;48.810;9.120;2024-01-07T13:34:16;3.20;81.50
210;DHT22;90;48.810;9.120;2024-01-07T13:36:44;3.20;81.20
210;DHT22;90;48.810;9.120;2024-01-07T13:39:10;3.20;80.90
210;DHT22;90;48.810;9.120;2024-01-07T13:41:39;3.20;81.00
210;DHT22;90;48.810;9.120;2024-01-07T13:44:05;3.10;80.90
210;DHT22;90;48.810;9.120;2024-01-07T13:46:32;3.10;80.90
210;DHT22;90;48.810;9.120;2024-01-07T13:48:59;3.10;80.90
210;DHT22;90;48.810;9.120;2024-01-07T13:51:26;3.20;81.50
210;DHT22;90;48.810;9.120;2024-01-07T13:53:52;3.30;80.90
210;DHT22;90;48.810;9.120;2024-01-07T13:56:19;3.20;80.20
210;DHT22;90;48.810;9.120;2024-01-07T13:58:47;3.20;80.10
210;DHT22;90;48.810;9.120;2024-01-07T14:01:15;3.20;80.20
210;DHT22;90;48.810;9.120;2024-01-07T14:03:42;3.30;79.80
210;DHT22;90;48.810;9.120;2024-01-07T14:06:09;3.30;79.70
210;DHT22;90;48.810;9.120;2024-01-07T14:08:36;3.20;79.90
210;DHT22;90;48.810;9.120;2024-01-07T14:11:03;3.10;80.30
210;DHT22;90;48.810;9.120;2024-01-07T14:13:32;3.00;80.70
210;DHT22;90;48.810;9.120;2024-01-07T14:16:01;3.00;80.70
210;DHT22;90;48.810;9.120;2024-01-07T14:18:28;3.00;80.60
210;DHT22;90;48.810;9.120;2024-01-07T14:20:54;3.10;81.00
210;DHT22;90;48.810;9.120;2024-01-07T14:23:21;3.10;81.20
210;DHT22;90;48.810;9.120;2024-01-07T14:25:48;3.20;80.40
210;DHT22;90;48.810;9.120;2024-01-07T14:28:14;3.20;80.10
210;DHT22;90;48.810;9.120;2024-01-07T14:30:41;3.20;80.30
210;DHT22;90;48.810;9.120;2024-01-07T14:33:10;3.10;80.40
210;DHT22;90;48.810;9.120;2024-01-07T14:35:36;3.10;80.20
210;DHT22;90;48.810;9.120;2024-01-07T14:38:03;3.00;80.60
210;DHT22;90;48.810;9.120;2024-01-07T14:40:30;3.00;80.60
210;DHT22;90;48.810;9.120;2024-01-07T14:42:56;3.00;80.70
210;DHT22;90;48.810;9.120;2024-01-07T14:45:24;3.00;81.00
210;DHT22;90;48.810;9.120;2024-01-07T14:47:51;2.90;81.00
210;DHT22;90;48.810;9.120;2024-01-07T14:50:20;2.90;81.40
210;DHT22;90;48.810;9.120;2024-01-07T14:52:47;2.90;82.00
210;DHT22;90;48.810;9.120;2024-01-07T14:55:14;3.00;82.10
210;DHT22;90;48.810;9.120;2024-01-07T14:57:41;2.90;82.10
210;DHT22;90;48.810;9.120;2024-01-07T15:00:08;3.00;81.80
210;DHT22;90;48.810;9.120;2024-01-07T15:02:36;3.00;80.80
210;DHT22;90;48.810;9.120;2024-01-07T15:05:03;3.10;80.90
210;DHT22;90;48.810;9.120;2024-01-07T15:07:31;3.00;80.70
210;DHT22;90;48.810;9.120;2024-01-07T15:09:58;3.00;81.40
210;DHT22;90;48.810;9.120;2024-01-07T15:12:25;3.00;82.20
210;DHT22;90;48.810;9.120;2024-01-07T15:15:01;3.00;82.90
210;DHT22;90;48.810;9.120;2024-01-07T15:17:29;2.90;82.50
210;DHT22;90;48.810;9.120;2024-01-07T15:19:55;2.90;81.80
210;DHT22;90;48.810;9.120;2024-01-07T15:22:22;2.80;81.50
210;DHT22;90;48.810;9.120;2024-01-07T15:24:50;2.80;82.20
210;DHT22;90;48.810;9.120;2024-01-07T15:27:17;2.80;81.90
210;DHT22;90;48.810;9.120;2024-01-07T15:29:44;2.80;81.70
210;DHT22;90;48.810;9.120;2024-01-07T15:32:12;2.80;81.60
210;DHT22;90;48.810;9.120;2024-01-07T15:34:39;2.70;81.70
210;DHT22;90;48.810;9.120;2024-01-07T15:37:06;2.70;82.40
210;DHT22;90;48.810;9.120;2024-01-07T15:39:33;2.60;82.50
210;DHT22;90;48.810;9.120;2024-01-07T15:42:01;2.50;83.10
210;DHT22;90;48.810;9.120;2024-01-07T15:44:28;2.50;83.60
210;DHT22;90;48.810;9.120;2024-01-07T15:46:55;2.60;83.80
210;DHT22;90;48.810;9.120;2024-01-07T15:49:22;2.50;84.10
210;DHT22;90;48.810;9.120;2024-01-07T15:51:49;2.40;84.20
210;DHT22;90;48.810;9.120;2024-01-07T15:54:16;2.40;85.00
210;DHT22;90;48.810;9.120;2024-01-07T15:56:42;2.40;85.20
210;DHT22;90;48.810;9.120;2024-01-07T15:59:11;2.40;85.30
210;DHT22;90;48.810;9.120;2024-01-07T16:01:38;2.30;85.80
210;DHT22;90;48.810;9.120;2024-01-07T16:04:05;2.30;86.00
210;DHT22;90;48.810;9.120;2024-01-07T16:06:31;2.30;86.60
210;DHT22;90;48.810;9.120;2024-01-07T16:08:58;2.30;86.80
210;DHT22;90;48.810;9.120;2024-01-07T16:11:25;2.30;86.70
210;DHT22;90;48.810;9.120;2024-01-07T16:13:51;2.30;86.40
210;DHT22;90;48.810;9.120;2024-01-07T16:16:19;2.30;86.70
210;DHT22;90;48.810;9.120;2024-01-07T16:18:46;2.30;87.10
210;DHT22;90;48.810;9.120;2024-01-07T16:21:13;2.20;87.10
210;DHT22;90;48.810;9.120;2024-01-07T16:23:41;2.20;87.80
210;DHT22;90;48.810;9.120;2024-01-07T16:26:07;2.20;87.70
210;DHT22;90;48.810;9.120;2024-01-07T16:28:34;2.20;87.90
210;DHT22;90;48.810;9.120;2024-01-07T16:31:02;2.30;88.00
210;DHT22;90;48.810;9.120;2024-01-07T16:33:31;2.30;87.80
210;DHT22;90;48.810;9.120;2024-01-07T16:36:00;2.20;88.10
210;DHT22;90;48.810;9.120;2024-01-07T16:38:27;2.30;88.20
210;DHT22;90;48.810;9.120;2024-01-07T16:40:54;2.40;88.10
210;DHT22;90;48.810;9.120;2024-01-07T16:43:21;2.30;87.70
210;DHT22;90;48.810;9.120;2024-01-07T16:45:48;2.30;87.60
210;DHT22;90;48.810;9.120;2024-01-07T16:48:14;2.10;87.50
210;DHT22;90;48.810;9.120;2024-01-07T16:50:43;2.10;88.00
210;DHT22;90;48.810;9.120;2024-01-07T16:53:09;2.10;88.00
210;DHT22;90;48.810;9.120;2024-01-07T16:55:36;2.10;88.20
210;DHT22;90;48.810;9.120;2024-01-07T16:58:03;2.00;88.30
210;DHT22;90;48.810;9.120;2024-01-07T17:00:29;2.00;88.80
210;DHT22;90;48.810;9.120;2024-01-07T17:02:56;2.10;89.00
210;DHT22;90;48.810;9.120;2024-01-07T17:05:23;2.00;88.70
210;DHT22;90;48.810;9.120;2024-01-07T17:07:52;2.00;89.10
210;DHT22;90;48.810;9.120;2024-01-07T17:10:19;2.00;89.10
210;DHT22;90;48.810;9.120;2024-01-07T17:12:46;1.90;88.90